Time;durP1;ratioP1;P1;durP2;ratioP2;P2;SDS_P1;SDS_P2;PMS_P1;PMS_P2;Temp;Humidity;BMP_temperature;BMP_pressure;BME280_temperature;BME280_humidity;BME280_pressure;Samples;Min_cycle;Max_cycle;Signal;HPM_P1;HPM_P2
2021/09/27 00:00:55;;;;;;;;;;;;;;;20.01;57.75;101231.28;5016470;28;796;-59
2021/09/27 00:03:21;;;;;;;;;;;;;;;20.12;57.41;101235.63;5016604;28;757;-59
2021/09/27 00:05:46;;;;;;;;;;;;;;;20.15;57.33;101229.50;5016920;28;864;-59
2021/09/27 00:08:11;;;;;;;;;;;;;;;20.04;57.58;101227.13;5015874;28;1906;-59
2021/09/27 00:10:39;;;;;;;;;;;;;;;20.10;57.11;101218.50;5015946;28;966;-59
2021/09/27 00:13:04;;;;;;;;;;;;;;;20.00;57.20;101215.81;5016420;28;1295;-59
2021/09/27 00:15:34;;;;;;;;;;;;;;;19.81;57.94;101212.88;5016253;28;1229;-59
2021/09/27 00:17:59;;;;;;;;;;;;;;;19.86;57.76;101212.03;5016962;28;855;-58
2021/09/27 00:20:25;;;;;;;;;;;;;;;19.91;57.55;101215.59;5016440;28;757;-58
2021/09/27 00:22:51;;;;;;;;;;;;;;;19.93;57.68;101220.84;5015818;28;1020;-59
2021/09/27 00:25:19;;;;;;;;;;;;;;;19.90;57.61;101221.41;5016059;28;954;-58
2021/09/27 00:27:45;;;;;;;;;;;;;;;19.91;57.53;101214.75;5016481;28;1914;-59
2021/09/27 00:30:11;;;;;;;;;;;;;;;19.97;57.48;101219.16;5016384;28;780;-59
2021/09/27 00:32:36;;;;;;;;;;;;;;;19.90;57.66;101215.88;5016091;28;784;-59
2021/09/27 00:35:02;;;;;;;;;;;;;;;19.89;57.53;101217.00;5015998;28;808;-58
2021/09/27 00:37:27;;;;;;;;;;;;;;;19.93;57.32;101209.78;5015948;28;1028;-59
2021/09/27 00:39:53;;;;;;;;;;;;;;;19.99;57.35;101216.91;5015800;28;857;-59
2021/09/27 00:42:18;;;;;;;;;;;;;;;20.03;57.05;101209.72;5016050;28;892;-59
2021/09/27 00:44:44;;;;;;;;;;;;;;;19.87;57.59;101219.22;5016585;28;796;-59
2021/09/27 00:47:09;;;;;;;;;;;;;;;19.84;57.78;101217.84;5015725;28;1115;-59
2021/09/27 00:49:35;;;;;;;;;;;;;;;19.84;57.67;101212.34;5015923;28;1976;-58
2021/09/27 00:52:00;;;;;;;;;;;;;;;19.87;57.40;101206.25;4998197;28;1129;-59
2021/09/27 00:54:27;;;;;;;;;;;;;;;19.87;57.65;101202.66;5015603;28;803;-59
2021/09/27 00:56:53;;;;;;;;;;;;;;;19.81;57.56;101208.22;4998705;28;939;-59
2021/09/27 00:59:18;;;;;;;;;;;;;;;19.88;57.51;101207.06;5015636;28;877;-59
2021/09/27 01:01:44;;;;;;;;;;;;;;;20.00;57.14;101210.28;4997607;28;859;-59
2021/09/27 01:04:09;;;;;;;;;;;;;;;20.02;57.29;101208.09;5015900;28;835;-59
2021/09/27 01:06:38;;;;;;;;;;;;;;;19.92;57.48;101205.38;5015522;28;1044;-59
2021/09/27 01:09:06;;;;;;;;;;;;;;;19.82;57.65;101197.97;5014958;28;1902;-59
2021/09/27 01:11:32;;;;;;;;;;;;;;;19.87;57.50;101202.66;5015844;28;773;-59
2021/09/27 01:14:01;;;;;;;;;;;;;;;19.93;57.23;101201.50;5015114;28;1024;-59
2021/09/27 01:16:45;;;;;;;;;;;;;;;19.87;57.42;101194.38;4997862;28;926;-59
2021/09/27 01:19:33;;;;;;;;;;;;;;;19.92;57.10;101202.63;5015541;28;849;-60
2021/09/27 01:22:17;;;;;;;;;;;;;;;19.74;57.54;101204.91;5014239;28;1063;-59
2021/09/27 01:25:02;;;;;;;;;;;;;;;19.71;57.81;101202.69;5015332;28;992;-59
2021/09/27 01:27:40;;;;;;;;;;;;;;;19.78;57.58;101210.66;4997614;28;1973;-59
2021/09/27 01:30:24;;;;;;;;;;;;;;;19.86;57.20;101204.59;5014702;28;905;-59
2021/09/27 01:33:09;;;;;;;;;;;;;;;19.80;57.60;101195.50;5015171;28;804;-59
2021/09/27 01:36:01;;;;;;;;;;;;;;;19.72;57.82;101204.34;4998092;28;750;-59
2021/09/27 01:38:56;;;;;;;;;;;;;;;19.75;57.45;101200.22;5011320;28;1189;-59
2021/09/27 01:41:36;;;;;;;;;;;;;;;19.74;57.50;101196.63;5002500;28;1359;-59
2021/09/27 01:44:05;;;;;;;;;;;;;;;19.59;58.05;101197.53;4997869;28;833;-59
2021/09/27 01:46:46;;;;;;;;;;;;;;;19.75;57.76;101189.16;4997451;28;847;-59
2021/09/27 01:49:14;;;;;;;;;;;;;;;19.74;57.37;101182.84;4997538;28;1988;-59
2021/09/27 01:51:50;;;;;;;;;;;;;;;19.86;57.00;101187.22;4996978;28;1113;-58
2021/09/27 01:54:26;;;;;;;;;;;;;;;19.75;57.21;101183.66;5015215;28;800;-58
2021/09/27 01:56:57;;;;;;;;;;;;;;;19.74;57.50;101188.34;5015118;28;1095;-59
2021/09/27 01:59:28;;;;;;;;;;;;;;;19.73;57.31;101183.13;5015053;28;832;-59
2021/09/27 02:02:08;;;;;;;;;;;;;;;19.76;57.41;101182.56;5014974;28;748;-59
2021/09/27 02:04:36;;;;;;;;;;;;;;;19.83;57.19;101177.56;5014598;28;855;-59
2021/09/27 02:07:02;;;;;;;;;;;;;;;19.95;56.52;101182.72;4996746;28;1038;-59
2021/09/27 02:09:30;;;;;;;;;;;;;;;19.82;57.14;101176.75;4997350;28;1989;-60
2021/09/27 02:11:57;;;;;;;;;;;;;;;19.83;57.03;101180.31;4997439;28;899;-59
2021/09/27 02:14:26;;;;;;;;;;;;;;;19.76;57.36;101177.84;4996616;28;1158;-59
2021/09/27 02:16:59;;;;;;;;;;;;;;;19.72;57.33;101173.19;5014786;28;784;-59
2021/09/27 02:19:27;;;;;;;;;;;;;;;19.61;57.68;101170.47;4997370;28;880;-59
2021/09/27 02:21:54;;;;;;;;;;;;;;;19.69;57.47;101180.09;5013934;28;1084;-59
2021/09/27 02:24:31;;;;;;;;;;;;;;;19.74;57.39;101180.06;4997220;28;850;-57
2021/09/27 02:26:56;;;;;;;;;;;;;;;19.77;57.21;101181.44;4997595;28;860;-56
2021/09/27 02:29:21;;;;;;;;;;;;;;;19.61;57.60;101169.66;5014277;28;1914;-59
2021/09/27 02:31:50;;;;;;;;;;;;;;;19.65;57.32;101167.97;5014198;28;797;-59
2021/09/27 02:34:36;;;;;;;;;;;;;;;19.68;57.36;101175.69;5018391;28;1139;-59
2021/09/27 02:37:03;;;;;;;;;;;;;;;19.79;57.05;101168.19;5017629;28;1074;-59
2021/09/27 02:39:32;;;;;;;;;;;;;;;19.74;57.03;101166.28;5018280;28;1127;-59
2021/09/27 02:41:57;;;;;;;;;;;;;;;19.72;57.05;101171.25;5018470;28;1221;-59
2021/09/27 02:44:23;;;;;;;;;;;;;;;19.63;57.33;101178.50;5017490;28;888;-59
2021/09/27 02:46:55;;;;;;;;;;;;;;;19.70;57.33;101180.91;5017898;28;803;-59
2021/09/27 02:49:29;;;;;;;;;;;;;;;19.75;57.16;101176.19;5001732;28;1910;-60
2021/09/27 02:51:56;;;;;;;;;;;;;;;19.66;57.16;101175.16;5017582;28;1104;-59
2021/09/27 02:54:27;;;;;;;;;;;;;;;19.77;57.09;101179.50;5018136;28;709;-60
2021/09/27 02:56:58;;;;;;;;;;;;;;;19.67;57.42;101174.06;5000686;28;863;-60
2021/09/27 02:59:44;;;;;;;;;;;;;;;19.67;57.25;101177.63;5017687;28;832;-60
2021/09/27 03:02:28;;;;;;;;;;;;;;;19.62;57.38;101177.66;5017823;28;816;-60
2021/09/27 03:04:57;;;;;;;;;;;;;;;19.77;56.79;101178.69;5018055;28;831;-60
2021/09/27 03:07:23;;;;;;;;;;;;;;;19.70;57.20;101178.16;4999727;28;1902;-59
2021/09/27 03:09:51;;;;;;;;;;;;;;;19.82;57.11;101178.66;5017772;28;764;-60
2021/09/27 03:12:35;;;;;;;;;;;;;;;19.67;57.13;101174.06;5017719;28;863;-59
2021/09/27 03:15:20;;;;;;;;;;;;;;;19.73;57.10;101172.91;5017741;28;1212;-60
2021/09/27 03:17:49;;;;;;;;;;;;;;;19.77;56.96;101173.16;5017674;28;883;-61
2021/09/27 03:20:32;;;;;;;;;;;;;;;19.70;57.18;101184.50;5000371;28;1105;-61
2021/09/27 03:22:58;;;;;;;;;;;;;;;19.78;56.99;101181.16;5016814;28;1161;-61
2021/09/27 03:25:42;;;;;;;;;;;;;;;19.71;57.09;101177.88;5017911;28;820;-62
2021/09/27 03:28:13;;;;;;;;;;;;;;;19.73;57.07;101178.41;5017434;28;1989;-62
2021/09/27 03:30:59;;;;;;;;;;;;;;;19.74;57.25;101179.22;5017679;28;828;-62
2021/09/27 03:33:29;;;;;;;;;;;;;;;19.77;57.14;101187.78;5000089;28;1289;-62
2021/09/27 03:35:54;;;;;;;;;;;;;;;19.73;57.23;101183.94;5017008;28;780;-61
2021/09/27 03:38:30;;;;;;;;;;;;;;;19.70;57.23;101173.47;5017253;28;1066;-62
2021/09/27 03:41:04;;;;;;;;;;;;;;;19.92;56.48;101169.50;5017320;28;799;-61
2021/09/27 03:43:37;;;;;;;;;;;;;;;19.69;57.57;101180.09;5005749;28;1861;-60
2021/09/27 03:46:06;;;;;;;;;;;;;;;19.66;58.20;101186.19;4975194;28;1447;-65
2021/09/27 03:48:44;;;;;;;;;;;;;;;19.72;57.88;101173.19;4996757;28;1902;-61
2021/09/27 03:51:16;;;;;;;;;;;;;;;19.69;57.91;101180.09;4996814;28;1441;-62
2021/09/27 03:53:49;;;;;;;;;;;;;;;19.78;57.60;101175.63;4978514;28;1445;-62
2021/09/27 03:56:44;;;;;;;;;;;;;;;19.73;57.52;101172.09;4979450;28;1580;-67
2021/09/27 03:59:17;;;;;;;;;;;;;;;19.88;57.21;101183.06;4979668;28;1571;-63
2021/09/27 04:01:48;;;;;;;;;;;;;;;19.69;57.70;101177.34;4984198;28;1752;-60
2021/09/27 04:04:28;;;;;;;;;;;;;;;19.78;57.26;101175.63;5001951;28;1594;-61
2021/09/27 04:06:58;;;;;;;;;;;;;;;19.76;57.53;101183.38;5005125;28;1619;-60
2021/09/27 04:09:26;;;;;;;;;;;;;;;19.68;57.51;101183.97;5000730;28;1910;-60
2021/09/27 04:12:13;;;;;;;;;;;;;;;19.57;57.73;101185.97;4996688;28;1496;-60
2021/09/27 04:14:41;;;;;;;;;;;;;;;19.64;57.71;101182.88;4974457;28;1366;-60
2021/09/27 04:17:07;;;;;;;;;;;;;;;19.63;57.55;101182.06;4996425;28;1563;-60
2021/09/27 04:19:46;;;;;;;;;;;;;;;19.76;57.14;101177.84;4996604;28;1414;-60
2021/09/27 04:22:12;;;;;;;;;;;;;;;19.75;57.15;101170.66;4980867;28;1871;-61
2021/09/27 04:24:56;;;;;;;;;;;;;;;19.68;57.34;101167.41;4998462;28;1476;-61
2021/09/27 04:27:27;;;;;;;;;;;;;;;19.72;57.36;101175.94;5002549;28;1600;-60
2021/09/27 04:29:53;;;;;;;;;;;;;;;19.68;57.43;101175.69;4996339;28;1447;-61
2021/09/27 04:32:30;;;;;;;;;;;;;;;19.76;57.04;101180.59;4994855;28;1636;-60
2021/09/27 04:34:55;;;;;;;;;;;;;;;19.83;56.81;101170.09;4995263;28;1544;-60
2021/09/27 04:37:21;;;;;;;;;;;;;;;19.74;57.05;101174.56;4999977;28;1225;-60
2021/09/27 04:39:47;;;;;;;;;;;;;;;19.60;57.42;101173.53;4996206;28;1450;-60
2021/09/27 04:42:15;;;;;;;;;;;;;;;19.56;57.47;101166.91;4977612;28;1466;-60
2021/09/27 04:44:44;;;;;;;;;;;;;;;19.85;56.85;101169.81;4995887;28;1038;-60
2021/09/27 04:47:21;;;;;;;;;;;;;;;19.99;56.43;101175.50;4995049;28;1286;-61
2021/09/27 04:49:47;;;;;;;;;;;;;;;19.89;56.61;101176.41;4989879;28;1974;-60
2021/09/27 04:52:18;;;;;;;;;;;;;;;19.79;56.95;101171.78;4995432;28;1667;-60
2021/09/27 04:54:47;;;;;;;;;;;;;;;19.86;56.97;101170.66;4995263;28;1681;-60
2021/09/27 04:57:18;;;;;;;;;;;;;;;19.78;57.24;101169.28;4995288;28;1466;-61
2021/09/27 04:59:44;;;;;;;;;;;;;;;19.74;57.34;101165.44;4995749;28;1651;-61
2021/09/27 05:02:09;;;;;;;;;;;;;;;19.94;56.88;101167.28;4994962;28;1532;-61
2021/09/27 05:04:51;;;;;;;;;;;;;;;19.97;56.86;101166.72;4994905;28;1566;-61
2021/09/27 05:07:24;;;;;;;;;;;;;;;19.82;57.33;101173.16;4996216;28;1624;-61
2021/09/27 05:10:02;;;;;;;;;;;;;;;19.78;57.56;101175.63;4978178;28;1906;-61
2021/09/27 05:12:31;;;;;;;;;;;;;;;19.88;57.36;101174.78;4995603;28;1421;-59
2021/09/27 05:15:12;;;;;;;;;;;;;;;19.86;57.08;101179.75;4978121;28;1352;-60
2021/09/27 05:17:56;;;;;;;;;;;;;;;19.85;57.38;101180.84;4995195;28;1449;-61
2021/09/27 05:20:28;;;;;;;;;;;;;;;19.89;57.36;101183.88;4973573;28;1450;-61
2021/09/27 05:22:57;;;;;;;;;;;;;;;19.95;57.27;101175.28;5001017;28;1591;-61
2021/09/27 05:25:49;;;;;;;;;;;;;;;19.93;57.29;101174.72;4994975;28;852;-61
2021/09/27 05:28:20;;;;;;;;;;;;;;;20.03;56.75;101165.53;4990692;28;1981;-61
2021/09/27 05:30:55;;;;;;;;;;;;;;;19.93;57.46;101171.16;4994973;28;1484;-61
2021/09/27 05:33:31;;;;;;;;;;;;;;;19.98;57.10;101168.38;4995393;28;1509;-60
2021/09/27 05:35:57;;;;;;;;;;;;;;;19.96;57.29;101176.09;4972576;28;1669;-61
2021/09/27 05:38:37;;;;;;;;;;;;;;;20.10;57.01;101181.78;4995221;28;1197;-60
2021/09/27 05:41:09;;;;;;;;;;;;;;;19.92;57.50;101177.78;4994617;28;1265;-60
2021/09/27 05:43:49;;;;;;;;;;;;;;;19.93;57.80;101168.38;4977279;28;1504;-62
2021/09/27 05:46:15;;;;;;;;;;;;;;;19.80;58.04;101167.91;4994627;28;1461;-61
2021/09/27 05:48:54;;;;;;;;;;;;;;;19.94;57.51;101161.78;4994719;28;1902;-62
2021/09/27 05:51:38;;;;;;;;;;;;;;;20.00;57.27;101171.66;4977358;28;1481;-62
2021/09/27 05:54:36;;;;;;;;;;;;;;;19.89;57.77;101175.59;4991412;28;1493;-61
2021/09/27 05:57:20;;;;;;;;;;;;;;;20.01;57.46;101167.78;4947253;28;1497;-61
2021/09/27 05:59:50;;;;;;;;;;;;;;;20.21;56.79;101165.97;4994256;28;1666;-61
2021/09/27 06:02:35;;;;;;;;;;;;;;;19.97;57.53;101173.03;4977952;28;1448;-60
2021/09/27 06:05:30;;;;;;;;;;;;;;;20.02;57.39;101160.31;4994381;28;1583;-61
2021/09/27 06:08:14;;;;;;;;;;;;;;;20.16;57.02;101159.38;4925840;28;1907;-61
2021/09/27 06:10:42;;;;;;;;;;;;;;;20.19;57.03;101163.50;4999152;28;1612;-62
2021/09/27 06:13:21;;;;;;;;;;;;;;;19.97;57.53;101162.00;4998239;28;1500;-61
2021/09/27 06:15:48;;;;;;;;;;;;;;;20.16;57.49;101162.13;4981708;28;1445;-66
2021/09/27 06:18:32;;;;;;;;;;;;;;;20.16;57.41;101175.09;4979817;28;1484;-61
2021/09/27 06:21:11;;;;;;;;;;;;;;;20.38;56.85;101174.66;4998217;28;1482;-62
2021/09/27 06:23:52;;;;;;;;;;;;;;;20.32;57.13;101178.59;4981832;28;1115;-61
2021/09/27 06:26:18;;;;;;;;;;;;;;;20.05;57.84;101179.91;4997328;28;1501;-62
2021/09/27 06:28:47;;;;;;;;;;;;;;;20.13;57.69;101175.69;4981578;28;1922;-62
2021/09/27 06:31:18;;;;;;;;;;;;;;;20.13;57.76;101171.00;4998876;28;1457;-62
2021/09/27 06:33:56;;;;;;;;;;;;;;;20.16;57.61;101175.94;4979879;28;1643;-62
2021/09/27 06:36:23;;;;;;;;;;;;;;;20.03;57.90;101182.09;4983027;28;1478;-61
2021/09/27 06:38:52;;;;;;;;;;;;;;;20.15;57.46;101179.00;5000395;28;1443;-61
2021/09/27 06:41:18;;;;;;;;;;;;;;;20.27;57.10;101193.25;4980279;28;1448;-62
2021/09/27 06:43:43;;;;;;;;;;;;;;;20.17;57.46;101183.13;4998518;28;1474;-62
2021/09/27 06:46:09;;;;;;;;;;;;;;;20.30;57.09;101192.69;4997063;28;1474;-62
2021/09/27 06:48:35;;;;;;;;;;;;;;;20.12;57.87;101187.88;4995955;28;2127;-63
2021/09/27 06:51:00;;;;;;;;;;;;;;;20.20;57.44;101191.94;4995284;28;1406;-61
2021/09/27 06:53:28;;;;;;;;;;;;;;;20.12;57.69;101190.63;4997385;28;1042;-62
2021/09/27 06:55:53;;;;;;;;;;;;;;;20.16;57.48;101186.16;4997268;28;1501;-61
2021/09/27 06:58:21;;;;;;;;;;;;;;;20.18;57.54;101186.69;4980838;28;1485;-61
2021/09/27 07:00:46;;;;;;;;;;;;;;;20.17;57.47;101183.13;4997292;28;1386;-61
2021/09/27 07:03:12;;;;;;;;;;;;;;;20.24;57.55;101181.97;4997439;28;1547;-61
2021/09/27 07:05:37;;;;;;;;;;;;;;;20.18;57.65;101179.22;4997944;28;1437;-61
2021/09/27 07:08:03;;;;;;;;;;;;;;;20.16;57.73;101187.00;4997284;28;1906;-61
2021/09/27 07:10:28;;;;;;;;;;;;;;;20.13;57.63;101179.28;4997610;28;1556;-62
2021/09/27 07:12:54;;;;;;;;;;;;;;;20.28;57.32;101178.31;4997071;28;1102;-61
2021/09/27 07:15:20;;;;;;;;;;;;;;;20.38;57.11;101171.88;4998001;28;1163;-62
2021/09/27 07:17:45;;;;;;;;;;;;;;;20.21;57.70;101171.50;4980014;28;1538;-61
2021/09/27 07:20:12;;;;;;;;;;;;;;;20.22;57.65;101178.69;4997827;28;1566;-61
2021/09/27 07:22:38;;;;;;;;;;;;;;;20.21;57.72;101171.50;4999208;28;1381;-60
2021/09/27 07:25:04;;;;;;;;;;;;;;;20.22;57.65;101178.69;4996720;28;1427;-61
2021/09/27 07:27:29;;;;;;;;;;;;;;;20.28;57.51;101183.03;4997418;28;1472;-61
2021/09/27 07:29:54;;;;;;;;;;;;;;;20.22;57.80;101178.69;4997337;28;1902;-62
2021/09/27 07:32:20;;;;;;;;;;;;;;;20.26;57.70;101188.00;4997090;28;1445;-61
2021/09/27 07:34:45;;;;;;;;;;;;;;;20.24;57.17;101187.47;4997555;28;1456;-61
2021/09/27 07:37:11;;;;;;;;;;;;;;;19.97;56.93;101194.31;5000840;28;1652;-62
2021/09/27 07:39:36;;;;;;;;;;;;;;;19.93;55.75;101193.22;4997040;28;1521;-61
2021/09/27 07:42:03;;;;;;;;;;;;;;;19.59;55.54;101199.47;4997466;28;1681;-61
2021/09/27 07:44:28;;;;;;;;;;;;;;;19.48;54.34;101190.41;4996993;28;1806;-61
2021/09/27 07:46:53;;;;;;;;;;;;;;;19.20;54.26;101187.22;4996353;28;1639;-62
2021/09/27 07:49:19;;;;;;;;;;;;;;;19.15;53.55;101193.59;4996781;28;1902;-62
2021/09/27 07:51:44;;;;;;;;;;;;;;;19.04;53.37;101189.22;4996417;28;1260;-62
2021/09/27 07:54:10;;;;;;;;;;;;;;;18.92;53.40;101194.22;4997176;28;1352;-61
2021/09/27 07:56:35;;;;;;;;;;;;;;;19.02;52.74;101191.41;4995916;28;1552;-62
2021/09/27 07:59:01;;;;;;;;;;;;;;;18.97;52.46;101199.69;4997172;28;1596;-62
2021/09/27 08:01:27;;;;;;;;;;;;;;;18.89;53.33;101189.25;4996534;28;1720;-62
2021/09/27 08:03:52;;;;;;;;;;;;;;;19.31;55.75;101194.34;4996028;28;1265;-61
2021/09/27 08:06:17;;;;;;;;;;;;;;;19.46;58.14;101196.22;4996331;28;1579;-61
2021/09/27 08:08:43;;;;;;;;;;;;;;;19.97;58.63;101200.66;4996774;28;1898;-61
2021/09/27 08:11:08;;;;;;;;;;;;;;;20.45;58.21;101199.19;4996265;28;1418;-61
2021/09/27 08:13:34;;;;;;;;;;;;;;;20.77;58.31;101204.16;4997168;28;1725;-62
2021/09/27 08:15:59;;;;;;;;;;;;;;;20.84;58.79;101198.28;4996051;28;1433;-61
2021/09/27 08:18:24;;;;;;;;;;;;;;;20.74;59.16;101201.16;4996038;28;1272;-60
2021/09/27 08:20:57;;;;;;;;;;;;;;;20.42;58.71;101197.81;4996844;28;1268;-61
2021/09/27 08:23:23;;;;;;;;;;;;;;;19.90;55.99;101194.63;4998627;28;1301;-61
2021/09/27 08:25:49;;;;;;;;;;;;;;;19.25;53.64;101198.25;4996048;28;1486;-62
2021/09/27 08:28:16;;;;;;;;;;;;;;;18.80;50.94;101189.78;4995742;28;1895;-62
2021/09/27 08:30:46;;;;;;;;;;;;;;;18.38;49.17;101195.63;4995397;28;1289;-60
2021/09/27 08:33:11;;;;;;;;;;;;;;;18.29;49.87;101192.59;4995559;28;1632;-62
2021/09/27 08:35:37;;;;;;;;;;;;;;;18.81;53.45;101191.44;4978344;28;1386;-62
2021/09/27 08:38:03;;;;;;;;;;;;;;;19.24;55.83;101191.06;4999351;28;1367;-61
2021/09/27 08:40:47;;;;;;;;;;;;;;;19.53;57.44;101184.03;4995597;28;1497;-62
2021/09/27 08:43:32;;;;;;;;;;;;;;;19.73;58.78;101191.41;4995928;28;1539;-61
2021/09/27 08:46:02;;;;;;;;;;;;;;;20.01;58.89;101184.34;4995611;28;1277;-62
2021/09/27 08:48:31;;;;;;;;;;;;;;;20.15;59.40;101179.00;4994777;28;1906;-60
2021/09/27 08:50:57;;;;;;;;;;;;;;;20.23;59.76;101185.81;4979063;28;1765;-63
2021/09/27 08:53:25;;;;;;;;;;;;;;;20.29;60.08;101184.69;4994866;28;1383;-60
2021/09/27 08:55:51;;;;;;;;;;;;;;;20.39;60.50;101184.59;4977449;28;1315;-61
2021/09/27 08:58:35;;;;;;;;;;;;;;;20.55;60.17;101187.22;4974115;28;1516;-62
2021/09/27 09:01:02;;;;;;;;;;;;;;;20.58;60.41;101179.19;4994871;28;1596;-63
2021/09/27 09:03:43;;;;;;;;;;;;;;;20.42;59.42;101183.19;4978593;28;1433;-62
2021/09/27 09:06:15;;;;;;;;;;;;;;;19.90;56.73;101168.97;4994443;28;1510;-62
2021/09/27 09:08:40;;;;;;;;;;;;;;;19.47;53.94;101173.06;4994335;28;1906;-63
2021/09/27 09:11:09;;;;;;;;;;;;;;;18.92;52.20;101169.41;4995466;28;1628;-62
2021/09/27 09:13:37;;;;;;;;;;;;;;;18.54;50.57;101163.41;4995118;28;1527;-62
2021/09/27 09:16:03;;;;;;;;;;;;;;;18.53;49.33;101170.00;4978020;28;1452;-62
2021/09/27 09:18:33;;;;;;;;;;;;;;;18.47;51.34;101164.50;4994918;28;1701;-64
2021/09/27 09:21:08;;;;;;;;;;;;;;;18.89;55.22;101170.78;4994093;28;1669;-62
2021/09/27 09:23:54;;;;;;;;;;;;;;;19.20;57.71;101159.66;4978042;28;1334;-62
2021/09/27 09:26:49;;;;;;;;;;;;;;;19.48;59.21;101166.41;4992022;28;1442;-67
2021/09/27 09:29:21;;;;;;;;;;;;;;;19.83;59.69;101167.34;4978141;28;1910;-63
2021/09/27 09:31:49;;;;;;;;;;;;;;;19.95;60.24;101163.41;4994740;28;1427;-63
2021/09/27 09:34:17;;;;;;;;;;;;;;;20.06;60.79;101164.16;4988835;28;1510;-63
2021/09/27 09:36:43;;;;;;;;;;;;;;;20.28;60.51;101167.28;4995593;28;1584;-63
2021/09/27 09:39:17;;;;;;;;;;;;;;;20.42;60.62;101172.16;4973516;28;1552;-63
2021/09/27 09:41:47;;;;;;;;;;;;;;;20.46;60.79;101175.97;4994338;28;1674;-63
2021/09/27 09:44:25;;;;;;;;;;;;;;;20.40;60.76;101169.69;4994466;28;1573;-63
2021/09/27 09:46:57;;;;;;;;;;;;;;;20.05;59.04;101166.09;4994118;28;1271;-63
2021/09/27 09:49:23;;;;;;;;;;;;;;;19.53;56.40;101157.31;4994524;28;1914;-63
2021/09/27 09:51:56;;;;;;;;;;;;;;;19.26;53.00;101163.22;4994581;28;1678;-63
2021/09/27 09:54:25;;;;;;;;;;;;;;;18.69;51.30;101165.28;4994731;28;1427;-63
2021/09/27 09:57:26;;;;;;;;;;;;;;;18.33;49.51;101166.16;4994454;28;1482;-62
2021/09/27 09:59:53;;;;;;;;;;;;;;;18.35;50.26;101152.13;4914892;29;1575;-63
2021/09/27 10:02:19;;;;;;;;;;;;;;;18.93;54.54;101143.50;4978404;28;1584;-62
2021/09/27 10:04:49;;;;;;;;;;;;;;;19.23;57.35;101152.75;4994432;28;1397;-63
2021/09/27 10:07:20;;;;;;;;;;;;;;;19.64;58.83;101149.78;4994192;28;1222;-63
2021/09/27 10:09:45;;;;;;;;;;;;;;;19.79;59.80;101144.19;4977126;28;1906;-64
2021/09/27 10:12:11;;;;;;;;;;;;;;;20.06;60.33;101142.88;4993637;28;1316;-64
2021/09/27 10:14:38;;;;;;;;;;;;;;;20.11;60.69;101151.13;4994170;28;2281;-64
2021/09/27 10:17:14;;;;;;;;;;;;;;;20.24;60.88;101148.81;4992717;28;1716;-62
2021/09/27 10:19:54;;;;;;;;;;;;;;;20.28;61.08;101150.72;4991606;28;1505;-63
2021/09/27 10:22:23;;;;;;;;;;;;;;;20.65;60.39;101146.50;4993766;28;1681;-62
2021/09/27 10:24:49;;;;;;;;;;;;;;;20.40;60.63;101155.88;4994101;28;1138;-63
2021/09/27 10:27:18;;;;;;;;;;;;;;;20.17;59.23;101141.72;4994443;28;1030;-63
2021/09/27 10:29:43;;;;;;;;;;;;;;;19.65;56.75;101152.25;4994515;28;1983;-62
2021/09/27 10:32:11;;;;;;;;;;;;;;;19.21;54.16;101139.25;4994766;28;1628;-63
2021/09/27 10:34:37;;;;;;;;;;;;;;;18.93;51.21;101146.25;4994444;28;1734;-61
2021/09/27 10:37:10;;;;;;;;;;;;;;;18.41;50.03;101138.06;4976367;28;1653;-61
2021/09/27 10:39:36;;;;;;;;;;;;;;;18.28;48.34;101130.38;4976795;28;1531;-61
2021/09/27 10:42:04;;;;;;;;;;;;;;;18.43;51.51;101132.28;4994142;28;1487;-63
2021/09/27 10:44:29;;;;;;;;;;;;;;;18.86;54.80;101124.47;4994164;28;1509;-63
2021/09/27 10:47:02;;;;;;;;;;;;;;;19.21;57.24;101124.63;4994132;28;1544;-63
2021/09/27 10:49:35;;;;;;;;;;;;;;;19.44;58.73;101118.44;4977303;28;1906;-63
2021/09/27 10:52:10;;;;;;;;;;;;;;;19.77;59.15;101127.06;4993669;28;1257;-63
2021/09/27 10:54:37;;;;;;;;;;;;;;;19.94;59.53;101121.19;4996891;28;1408;-63
2021/09/27 10:57:05;;;;;;;;;;;;;;;19.99;60.36;101125.81;4997832;28;1048;-63
2021/09/27 10:59:32;;;;;;;;;;;;;;;20.33;59.76;101111.19;4980279;28;1470;-63
2021/09/27 11:02:09;;;;;;;;;;;;;;;20.38;60.24;101113.06;4980198;28;1182;-63
2021/09/27 11:04:39;;;;;;;;;;;;;;;20.25;60.88;101111.81;4997965;28;1438;-64
2021/09/27 11:07:13;;;;;;;;;;;;;;;20.65;59.91;101110.59;4979412;28;1487;-62
2021/09/27 11:09:39;;;;;;;;;;;;;;;20.58;60.16;101109.28;4997765;28;1988;-63
2021/09/27 11:12:08;;;;;;;;;;;;;;;20.10;58.94;101102.53;4997211;28;1226;-63
2021/09/27 11:14:39;;;;;;;;;;;;;;;19.63;56.19;101106.78;4997428;28;1386;-63
2021/09/27 11:17:07;;;;;;;;;;;;;;;19.18;53.70;101100.41;4998135;28;1474;-63
2021/09/27 11:19:33;;;;;;;;;;;;;;;18.80;50.93;101090.63;4997252;28;1448;-62
2021/09/27 11:22:21;;;;;;;;;;;;;;;18.41;49.45;101099.53;4997837;28;1158;-62
2021/09/27 11:25:02;;;;;;;;;;;;;;;18.28;48.41;101100.09;4987036;28;1646;-62
2021/09/27 11:27:32;;;;;;;;;;;;;;;18.55;52.11;101099.78;4997010;28;1426;-62
2021/09/27 11:30:18;;;;;;;;;;;;;;;18.93;55.50;101089.22;4997086;28;1930;-62
2021/09/27 11:32:45;;;;;;;;;;;;;;;19.29;57.45;101090.97;4997146;28;1961;-64
2021/09/27 11:35:16;;;;;;;;;;;;;;;19.49;58.85;101096.34;4997496;28;1435;-64
2021/09/27 11:37:41;;;;;;;;;;;;;;;19.70;59.56;101093.47;4991136;28;1077;-64
2021/09/27 11:40:07;;;;;;;;;;;;;;;19.92;59.63;101089.47;4996250;28;1590;-64
2021/09/27 11:42:46;;;;;;;;;;;;;;;20.09;59.94;101095.41;4991064;28;1512;-63
2021/09/27 11:45:16;;;;;;;;;;;;;;;20.07;60.58;101097.59;4974501;28;1568;-63
2021/09/27 11:47:42;;;;;;;;;;;;;;;20.18;60.82;101088.13;4997283;28;1482;-63
2021/09/27 11:50:26;;;;;;;;;;;;;;;20.41;60.35;101096.75;4997062;28;1981;-63
2021/09/27 11:52:54;;;;;;;;;;;;;;;20.41;60.77;101085.72;4995849;28;1325;-63
2021/09/27 11:55:28;;;;;;;;;;;;;;;20.50;60.21;101075.66;4997170;28;1573;-63
2021/09/27 11:57:56;;;;;;;;;;;;;;;20.11;59.48;101079.34;4979601;28;1618;-63
2021/09/27 12:00:22;;;;;;;;;;;;;;;19.74;56.56;101085.44;4979060;28;1454;-63
2021/09/27 12:03:00;;;;;;;;;;;;;;;19.31;54.29;101067.50;4997229;28;1294;-63
2021/09/27 12:05:37;;;;;;;;;;;;;;;18.93;52.07;101071.88;4994575;28;1433;-63
2021/09/27 12:08:16;;;;;;;;;;;;;;;18.57;49.88;101063.69;4978426;28;1902;-63
2021/09/27 12:10:53;;;;;;;;;;;;;;;18.34;49.43;101070.63;4974722;28;1567;-63
2021/09/27 12:13:20;;;;;;;;;;;;;;;18.32;51.46;101068.16;4997170;28;1598;-63
2021/09/27 12:15:47;;;;;;;;;;;;;;;18.88;54.77;101063.63;4996677;28;1204;-63
2021/09/27 12:18:31;;;;;;;;;;;;;;;19.12;57.01;101064.56;4996105;28;1628;-63
2021/09/27 12:20:57;;;;;;;;;;;;;;;19.43;58.35;101053.38;4996340;28;1521;-63
2021/09/27 12:23:22;;;;;;;;;;;;;;;19.58;59.68;101046.91;4998458;28;1290;-63
2021/09/27 12:25:47;;;;;;;;;;;;;;;19.81;59.79;101042.63;4996999;28;1551;-63
2021/09/27 12:28:13;;;;;;;;;;;;;;;19.89;60.37;101040.38;4978562;28;1915;-63
2021/09/27 12:30:41;;;;;;;;;;;;;;;20.09;60.17;101044.84;4978960;28;1468;-63
2021/09/27 12:33:25;;;;;;;;;;;;;;;20.24;60.36;101053.00;4996374;28;1202;-63
2021/09/27 12:35:51;;;;;;;;;;;;;;;20.37;60.23;101054.25;4996049;28;1441;-63
2021/09/27 12:38:20;;;;;;;;;;;;;;;20.38;60.71;101058.66;5000803;28;1286;-63
2021/09/27 12:40:46;;;;;;;;;;;;;;;20.47;60.57;101051.38;4996222;28;1857;-63
2021/09/27 12:43:14;;;;;;;;;;;;;;;20.23;60.67;101058.81;4978320;28;1555;-64
2021/09/27 12:45:41;;;;;;;;;;;;;;;20.08;58.45;101055.09;4996440;28;1560;-63
2021/09/27 12:48:12;;;;;;;;;;;;;;;19.74;56.54;101058.69;4995881;28;1910;-63
2021/09/27 12:50:38;;;;;;;;;;;;;;;19.25;55.14;101051.28;4996074;28;1457;-63
2021/09/27 12:53:04;;;;;;;;;;;;;;;19.06;53.29;101057.47;4978561;28;1616;-63
2021/09/27 12:55:36;;;;;;;;;;;;;;;18.88;52.12;101058.09;4978477;28;1113;-62
2021/09/27 12:58:03;;;;;;;;;;;;;;;18.78;51.41;101058.94;4978147;28;1421;-63
2021/09/27 13:00:33;;;;;;;;;;;;;;;18.72;52.00;101058.13;4978095;28;1692;-61
2021/09/27 13:03:03;;;;;;;;;;;;;;;18.91;54.04;101052.84;4993693;28;1569;-61
2021/09/27 13:05:32;;;;;;;;;;;;;;;19.18;55.88;101050.78;4978199;28;1601;-61
2021/09/27 13:07:58;;;;;;;;;;;;;;;19.47;57.59;101065.50;4977191;28;1910;-61